Time;durP1;ratioP1;P1;durP2;ratioP2;P2;SDS_P1;SDS_P2;PMS_P1;PMS_P2;Temp;Humidity;BMP_temperature;BMP_pressure;BME280_temperature;BME280_humidity;BME280_pressure;Samples;Min_cycle;Max_cycle;Signal;HPM_P1;HPM_P2
2023/01/27 00:01:15;;;;;;;26.63;25.13;;;;;;;3.52;100.00;102396.31;10188202;28;20052;-70
2023/01/27 00:06:12;;;;;;;25.58;24.17;;;;;;;3.40;100.00;102400.88;10191598;28;20092;-69
2023/01/27 00:16:23;;;;;;;25.75;24.40;;;;;;;3.51;100.00;102411.72;10192405;28;20057;-70
2023/01/27 00:26:35;;;;;;;28.80;27.08;;;;;;;3.44;100.00;102421.81;10183298;28;20566;-69
2023/01/27 00:36:46;;;;;;;30.90;29.17;;;;;;;3.40;100.00;102433.31;10179886;28;20500;-71
2023/01/27 00:41:43;;;;;;;28.95;27.35;;;;;;;3.35;100.00;102434.00;10192063;28;20069;-69
2023/01/27 00:46:40;;;;;;;28.65;26.85;;;;;;;3.40;100.00;102447.66;10184291;28;20104;-69
2023/01/27 00:51:37;;;;;;;27.25;25.60;;;;;;;3.47;100.00;102440.28;10192903;28;20538;-70
2023/01/27 00:56:34;;;;;;;27.05;25.35;;;;;;;3.50;100.00;102442.50;10191225;28;20061;-70
2023/01/27 01:01:32;;;;;;;27.85;25.83;;;;;;;3.43;100.00;102447.19;10191309;28;20084;-68
2023/01/27 01:06:29;;;;;;;27.08;25.58;;;;;;;3.53;100.00;102458.31;10188942;28;20061;-69
2023/01/27 01:11:27;;;;;;;26.08;24.58;;;;;;;3.58;100.00;102449.50;10191978;28;20052;-69
2023/01/27 01:16:24;;;;;;;25.52;23.95;;;;;;;3.52;100.00;102456.63;10189563;28;20701;-69
2023/01/27 01:21:21;;;;;;;29.00;26.42;;;;;;;3.62;100.00;102466.09;10189420;28;20042;-69
2023/01/27 01:26:17;;;;;;;27.52;25.92;;;;;;;3.65;100.00;102471.06;10176788;28;20058;-69
2023/01/27 01:31:17;;;;;;;28.02;26.23;;;;;;;3.62;100.00;102466.09;10186810;28;20597;-71
2023/01/27 01:36:17;;;;;;;27.83;26.20;;;;;;;3.68;100.00;102465.19;10189602;28;20045;-71
2023/01/27 01:41:18;;;;;;;25.95;24.48;;;;;;;3.55;100.00;102467.03;10196622;28;20038;-71
2023/01/27 01:46:16;;;;;;;26.83;25.23;;;;;;;3.60;100.00;102477.16;10188297;28;20062;-71
2023/01/27 01:51:28;;;;;;;25.98;24.52;;;;;;;3.56;100.00;102478.66;10189965;28;20483;-71
2023/01/27 01:56:29;;;;;;;27.57;25.73;;;;;;;3.54;100.00;102492.41;10187688;28;20054;-70
2023/01/27 02:01:26;;;;;;;28.20;26.50;;;;;;;3.65;100.00;102487.28;10184470;28;20511;-70
2023/01/27 02:06:23;;;;;;;26.45;24.85;;;;;;;3.49;100.00;102494.97;10188255;28;20045;-70
2023/01/27 02:11:20;;;;;;;27.52;25.55;;;;;;;3.56;100.00;102490.28;10189776;28;20108;-70
2023/01/27 02:16:16;;;;;;;26.55;24.98;;;;;;;3.45;100.00;102499.16;10180473;28;20077;-70
2023/01/27 02:21:13;;;;;;;27.50;25.83;;;;;;;3.49;100.00;102494.97;10180044;28;20539;-69
2023/01/27 02:26:22;;;;;;;27.70;26.15;;;;;;;3.45;100.00;102498.34;10187285;28;20073;-69
2023/01/27 02:31:19;;;;;;;25.15;23.50;;;;;;;3.46;100.00;102500.00;10187883;28;20064;-69
2023/01/27 02:36:17;;;;;;;26.55;25.05;;;;;;;3.39;100.00;102510.91;10196198;28;20081;-70
2023/01/27 02:41:22;;;;;;;29.42;27.48;;;;;;;3.29;100.00;102516.00;10196540;28;20048;-70
2023/01/27 02:46:19;;;;;;;27.65;26.15;;;;;;;3.43;100.00;102522.09;10195873;28;20041;-70
2023/01/27 02:51:16;;;;;;;28.65;26.95;;;;;;;3.40;100.00;102525.25;10195407;28;20049;-69
2023/01/27 02:56:12;;;;;;;30.95;29.13;;;;;;;3.37;100.00;102530.06;10196307;28;20173;-69
2023/01/27 03:01:09;;;;;;;30.15;28.45;;;;;;;3.33;100.00;102528.84;10189477;28;20041;-69
2023/01/27 03:06:06;;;;;;;28.88;27.20;;;;;;;3.31;100.00;102535.53;10181661;28;20108;-69
2023/01/27 03:11:02;;;;;;;27.77;26.27;;;;;;;3.34;100.00;102540.47;10193730;28;20153;-70
2023/01/27 03:21:16;;;;;;;27.83;26.33;;;;;;;3.28;100.00;102546.81;10184132;28;20052;-68
2023/01/27 03:26:13;;;;;;;28.70;27.20;;;;;;;3.29;100.00;102553.84;10172380;28;20787;-68
2023/01/27 03:31:18;;;;;;;27.58;26.08;;;;;;;3.31;100.00;102559.84;10190308;28;20042;-68
2023/01/27 03:46:45;;;;;;;27.75;26.25;;;;;;;3.10;100.00;102580.03;10180734;28;20530;-69
2023/01/27 03:51:41;;;;;;;27.63;26.13;;;;;;;3.11;100.00;102585.22;10191838;28;20046;-69
2023/01/27 03:56:38;;;;;;;29.05;27.27;;;;;;;3.14;100.00;102590.16;10194744;28;20116;-68
2023/01/27 04:01:34;;;;;;;27.50;26.00;;;;;;;3.14;100.00;102595.56;10184615;28;20560;-69
2023/01/27 04:11:54;;;;;;;25.52;24.13;;;;;;;3.03;100.00;102606.28;10191684;28;20061;-69
2023/01/27 04:16:52;;;;;;;27.52;26.02;;;;;;;3.09;100.00;102598.13;10181173;28;20078;-69
2023/01/27 04:21:49;;;;;;;29.55;27.63;;;;;;;3.08;100.00;102607.25;10182108;28;20096;-69
2023/01/27 04:26:45;;;;;;;28.83;27.08;;;;;;;3.00;100.00;102610.25;10189715;28;20066;-69
2023/01/27 04:31:42;;;;;;;28.60;27.10;;;;;;;2.93;100.00;102609.50;10188653;28;20056;-68
2023/01/27 04:36:40;;;;;;;28.75;27.25;;;;;;;2.91;100.00;102611.59;10187752;28;20046;-69
2023/01/27 04:41:36;;;;;;;28.58;26.98;;;;;;;2.92;100.00;102608.66;10188564;28;20046;-69
2023/01/27 04:46:33;;;;;;;27.77;26.17;;;;;;;3.07;100.00;102631.84;10183092;28;20132;-69
2023/01/27 04:51:30;;;;;;;29.08;27.50;;;;;;;2.95;100.00;102618.22;10183403;28;20070;-69
2023/01/27 04:56:30;;;;;;;29.10;27.45;;;;;;;3.02;100.00;102635.19;10178683;28;20053;-69
2023/01/27 05:01:27;;;;;;;28.38;26.88;;;;;;;3.02;100.00;102640.59;10179209;28;20049;-69
2023/01/27 05:06:25;;;;;;;28.45;26.88;;;;;;;3.04;100.00;102646.63;10184521;28;20042;-70
2023/01/27 05:11:22;;;;;;;29.77;28.17;;;;;;;3.02;100.00;102648.72;10184964;28;20081;-69
2023/01/27 05:16:23;;;;;;;29.60;27.88;;;;;;;2.94;100.00;102649.78;10191589;28;20076;-69
2023/01/27 05:21:23;;;;;;;27.88;26.38;;;;;;;2.96;100.00;102657.69;10183714;28;20468;-69
2023/01/27 05:26:23;;;;;;;29.33;27.63;;;;;;;3.04;100.00;102654.72;10180595;28;20064;-69
2023/01/27 05:31:22;;;;;;;29.75;27.95;;;;;;;2.80;100.00;102642.00;10188055;28;20052;-69
2023/01/27 05:36:21;;;;;;;28.48;26.98;;;;;;;2.88;100.00;102639.06;10186977;28;20042;-72
2023/01/27 05:41:19;;;;;;;28.65;27.10;;;;;;;2.73;100.00;102637.47;10172858;28;20099;-72
2023/01/27 05:46:23;;;;;;;31.98;30.02;;;;;;;2.58;100.00;102645.06;10182101;28;20042;-71
2023/01/27 05:51:22;;;;;;;29.67;28.08;;;;;;;2.57;100.00;102629.88;10180258;28;20046;-71
2023/01/27 05:56:19;;;;;;;28.33;26.77;;;;;;;2.68;100.00;102656.19;10182023;28;20048;-69
2023/01/27 06:01:19;;;;;;;27.63;26.13;;;;;;;2.61;100.00;102663.53;10183138;28;20070;-69
2023/01/27 06:06:18;;;;;;;29.15;27.13;;;;;;;2.55;100.00;102667.06;10181124;28;20038;-68
2023/01/27 06:11:18;;;;;;;27.88;25.90;;;;;;;2.45;100.00;102669.44;10170519;28;20052;-69
2023/01/27 06:16:17;;;;;;;29.88;27.77;;;;;;;2.22;100.00;102676.16;10173203;28;20042;-69
2023/01/27 06:21:15;;;;;;;34.17;32.15;;;;;;;2.20;100.00;102678.25;10186496;28;20042;-70
2023/01/27 06:26:15;;;;;;;31.05;28.98;;;;;;;2.37;100.00;102691.25;10186089;28;20054;-69
2023/01/27 06:31:17;;;;;;;29.08;27.27;;;;;;;2.48;100.00;102698.69;10177495;28;20054;-69
2023/01/27 06:36:16;;;;;;;29.70;28.00;;;;;;;2.57;100.00;102708.19;10176118;28;20066;-69
2023/01/27 06:41:13;;;;;;;26.92;25.42;;;;;;;2.59;100.00;102716.91;10176497;28;20129;-69
2023/01/27 06:46:09;;;;;;;27.88;26.08;;;;;;;2.63;100.00;102707.34;10185033;28;20038;-69
2023/01/27 06:51:06;;;;;;;27.02;25.42;;;;;;;2.67;100.00;102713.97;10185938;28;20042;-69
2023/01/27 06:56:04;;;;;;;27.35;25.65;;;;;;;2.73;100.00;102723.09;10180296;28;20073;-69
2023/01/27 07:01:04;;;;;;;26.42;24.60;;;;;;;2.65;100.00;102734.97;10177737;28;20188;-69
2023/01/27 07:06:00;;;;;;;27.02;25.42;;;;;;;2.69;100.00;102743.47;10177123;28;20928;-69
2023/01/27 07:10:57;;;;;;;30.65;28.85;;;;;;;2.58;100.00;102753.09;10186613;28;20234;-69
2023/01/27 07:15:55;;;;;;;28.30;26.70;;;;;;;2.63;100.00;102761.38;10181084;28;20038;-69
2023/01/27 07:20:51;;;;;;;29.77;27.88;;;;;;;2.35;100.00;102769.78;10191674;28;20058;-69
2023/01/27 07:25:48;;;;;;;27.50;25.90;;;;;;;2.52;100.00;102786.34;10192781;28;20042;-69
2023/01/27 07:30:44;;;;;;;29.13;27.02;;;;;;;2.53;100.00;102778.03;10184620;28;20117;-69
2023/01/27 07:35:41;;;;;;;28.38;26.67;;;;;;;2.40;100.00;102783.47;10187407;28;20529;-69
2023/01/27 07:40:38;;;;;;;29.50;27.65;;;;;;;2.52;100.00;102797.13;10188271;28;20054;-69
2023/01/27 07:45:34;;;;;;;27.58;26.08;;;;;;;2.62;100.00;102792.13;10186119;28;20042;-69
2023/01/27 07:56:26;;;;;;;25.52;23.83;;;;;;;2.62;100.00;102788.56;10902350;23;20055;-69
2023/01/27 08:01:23;;;;;;;27.73;25.88;;;;;;;2.71;100.00;102790.81;10089047;28;20130;-67
2023/01/27 08:06:19;;;;;;;25.25;23.75;;;;;;;2.70;100.00;102794.56;10083677;28;20127;-68
2023/01/27 08:11:16;;;;;;;23.20;21.90;;;;;;;2.82;100.00;102802.00;10085711;28;20840;-68
2023/01/27 08:16:13;;;;;;;25.05;23.42;;;;;;;2.95;100.00;102802.78;10094969;28;20162;-68
2023/01/27 08:21:11;;;;;;;22.70;21.20;;;;;;;2.82;100.00;102796.63;10090796;28;20062;-68
2023/01/27 08:26:08;;;;;;;25.13;23.50;;;;;;;2.91;100.00;102806.13;10090352;28;20126;-68
2023/01/27 08:31:10;;;;;;;24.60;23.10;;;;;;;2.82;100.00;102810.13;10108458;28;20063;-67
2023/01/27 08:36:11;;;;;;;25.23;23.83;;;;;;;2.73;100.00;102825.72;10099309;28;20043;-68
2023/01/27 08:41:13;;;;;;;25.95;24.38;;;;;;;2.80;100.00;102836.53;10102805;28;20047;-68
2023/01/27 08:46:11;;;;;;;27.42;25.15;;;;;;;2.78;100.00;102819.69;10090644;28;20043;-68
2023/01/27 08:51:09;;;;;;;25.27;23.73;;;;;;;2.51;100.00;102822.50;10089261;28;20488;-67
2023/01/27 08:56:11;;;;;;;26.00;24.50;;;;;;;2.70;100.00;102827.00;10101519;28;20129;-68
2023/01/27 09:01:08;;;;;;;28.48;26.45;;;;;;;2.66;100.00;102841.97;10091814;28;20043;-68
2023/01/27 09:06:08;;;;;;;27.38;25.58;;;;;;;2.71;100.00;102847.53;10108761;28;20089;-68
2023/01/27 09:11:12;;;;;;;26.75;25.20;;;;;;;2.82;100.00;102850.66;10103433;28;20043;-68
2023/01/27 09:16:09;;;;;;;25.77;24.17;;;;;;;2.63;100.00;102845.09;10092852;28;20519;-68
2023/01/27 09:21:06;;;;;;;26.08;24.15;;;;;;;2.65;100.00;102851.13;10091940;28;20051;-68
2023/01/27 09:26:02;;;;;;;24.80;23.40;;;;;;;2.62;100.00;102862.34;10094017;28;20493;-68
2023/01/27 09:30:59;;;;;;;25.40;23.88;;;;;;;2.72;100.00;102867.31;10087897;28;20063;-68
2023/01/27 09:36:09;;;;;;;25.70;24.20;;;;;;;2.59;100.00;102878.97;10092553;28;20042;-68
2023/01/27 09:41:39;;;;;;;24.13;22.83;;;;;;;2.58;100.00;102865.69;10089416;28;20051;-68
2023/01/27 09:46:50;;;;;;;25.08;23.50;;;;;;;2.68;100.00;102866.88;10091550;28;20157;-68
2023/01/27 09:51:49;;;;;;;24.48;22.80;;;;;;;2.62;100.00;102859.66;10102710;28;20086;-68
2023/01/27 09:56:59;;;;;;;21.52;19.88;;;;;;;2.63;100.00;102858.59;10098238;28;20034;-68
2023/01/27 10:02:06;;;;;;;20.13;18.80;;;;;;;2.72;100.00;102862.72;10102141;28;20067;-68
2023/01/27 10:07:33;;;;;;;18.40;17.27;;;;;;;2.92;100.00;102861.81;10096391;28;20043;-68
2023/01/27 10:13:07;;;;;;;17.05;15.88;;;;;;;2.81;100.00;102859.78;10078107;28;20051;-68
2023/01/27 10:18:18;;;;;;;16.15;15.10;;;;;;;2.89;100.00;102849.56;10103017;28;20047;-68
2023/01/27 10:23:23;;;;;;;13.18;12.00;;;;;;;3.26;100.00;102857.09;10081493;28;20067;-68
2023/01/27 10:28:28;;;;;;;10.90;10.20;;;;;;;3.50;100.00;102852.78;10077078;28;20118;-68
2023/01/27 10:33:36;;;;;;;10.65;9.70;;;;;;;3.11;100.00;102849.25;10086152;28;20057;-68
2023/01/27 10:38:52;;;;;;;9.30;8.40;;;;;;;3.35;100.00;102845.00;10081570;28;20082;-68
2023/01/27 10:43:51;;;;;;;9.30;8.50;;;;;;;3.53;100.00;102841.56;10096242;28;20075;-67
2023/01/27 10:48:59;;;;;;;9.48;8.50;;;;;;;3.52;100.00;102835.28;10077236;28;20077;-68
2023/01/27 10:54:06;;;;;;;9.18;8.23;;;;;;;3.47;100.00;102827.00;10090695;28;20077;-67
2023/01/27 10:59:27;;;;;;;8.35;7.60;;;;;;;3.39;100.00;102813.78;10093627;28;20655;-68
2023/01/27 11:04:37;;;;;;;8.13;7.50;;;;;;;3.48;100.00;102820.56;10101853;28;20074;-68
2023/01/27 11:09:38;;;;;;;8.38;7.68;;;;;;;3.59;100.00;102819.84;10096333;28;20473;-68
2023/01/27 11:14:49;;;;;;;8.77;8.07;;;;;;;3.47;100.00;102816.19;10103334;28;20138;-68
2023/01/27 11:20:11;;;;;;;8.45;7.85;;;;;;;3.49;100.00;102822.22;10107869;28;20043;-68
2023/01/27 11:25:31;;;;;;;8.98;8.20;;;;;;;3.58;100.00;102818.19;10083292;28;20055;-68
2023/01/27 11:30:41;;;;;;;9.05;8.25;;;;;;;3.44;100.00;102824.75;10096448;28;20159;-67
2023/01/27 11:35:38;;;;;;;10.77;7.60;;;;;;;3.27;100.00;102826.31;10099201;28;20538;-68
2023/01/27 11:40:37;;;;;;;8.60;7.95;;;;;;;3.06;100.00;102820.16;10107488;28;20051;-68
2023/01/27 11:45:35;;;;;;;8.20;7.50;;;;;;;3.19;100.00;102818.47;10104833;28;20054;-69
2023/01/27 11:50:34;;;;;;;8.43;7.72;;;;;;;3.45;100.00;102818.28;10104614;28;20571;-69
2023/01/27 11:55:37;;;;;;;8.80;8.20;;;;;;;3.43;100.00;102812.25;10104077;28;20085;-68
2023/01/27 12:00:40;;;;;;;9.52;8.45;;;;;;;3.55;100.00;102807.84;10106292;28;20093;-68
2023/01/27 12:05:48;;;;;;;8.68;8.02;;;;;;;3.59;100.00;102814.44;10107732;28;20158;-68
2023/01/27 12:10:45;;;;;;;8.20;7.40;;;;;;;3.51;100.00;102801.19;10091595;28;20067;-68
2023/01/27 12:15:52;;;;;;;8.65;7.95;;;;;;;3.21;100.00;102797.47;10111512;28;20070;-68
2023/01/27 12:20:57;;;;;;;8.95;8.20;;;;;;;3.24;100.00;102791.59;10098902;28;20572;-68
2023/01/27 12:26:03;;;;;;;8.32;7.72;;;;;;;3.37;100.00;102795.06;10095879;28;20046;-69
2023/01/27 12:31:16;;;;;;;7.65;7.15;;;;;;;3.25;100.00;102785.13;10098493;28;20505;-69
2023/01/27 12:36:21;;;;;;;8.38;7.57;;;;;;;3.64;100.00;102791.31;10093343;28;20106;-68
2023/01/27 12:41:27;;;;;;;9.38;6.65;;;;;;;3.35;100.00;102793.63;10089613;28;20082;-68
2023/01/27 12:46:26;;;;;;;11.68;7.30;;;;;;;3.51;100.00;102803.91;10097411;28;20053;-68
2023/01/27 12:51:38;;;;;;;8.35;7.65;;;;;;;3.52;100.00;102796.59;10091852;28;20499;-68
2023/01/27 12:56:35;;;;;;;8.17;7.47;;;;;;;3.35;100.00;102802.53;10093398;28;20057;-68
2023/01/27 13:01:40;;;;;;;8.18;7.38;;;;;;;3.42;100.00;102797.09;10088837;28;20990;-69
2023/01/27 13:06:40;;;;;;;8.00;7.40;;;;;;;3.54;100.00;102789.94;10086255;28;20050;-68
2023/01/27 13:11:39;;;;;;;8.00;7.45;;;;;;;3.29;100.00;102787.19;10088280;28;20055;-68
2023/01/27 13:16:36;;;;;;;9.20;8.50;;;;;;;3.24;100.00;102789.72;10089998;28;20074;-68
2023/01/27 13:21:36;;;;;;;8.48;7.78;;;;;;;3.16;100.00;102788.13;10085955;28;20070;-68
2023/01/27 13:26:36;;;;;;;11.68;8.65;;;;;;;3.22;100.00;102786.41;10096334;28;20046;-68
2023/01/27 13:31:42;;;;;;;8.40;7.72;;;;;;;3.48;100.00;102780.00;10095220;28;20570;-68
2023/01/27 13:36:52;;;;;;;7.95;7.35;;;;;;;3.40;100.00;102776.72;10099257;28;20077;-68
2023/01/27 13:41:55;;;;;;;7.97;7.38;;;;;;;3.47;100.00;102783.75;10099575;28;21244;-68
2023/01/27 13:46:56;;;;;;;7.78;7.20;;;;;;;3.39;100.00;102781.31;10098579;28;20126;-68
2023/01/27 13:51:52;;;;;;;8.13;7.47;;;;;;;3.50;100.00;102783.28;10096665;28;20142;-68
2023/01/27 13:57:05;;;;;;;7.60;6.90;;;;;;;3.23;100.00;102779.16;10096993;28;20062;-68
2023/01/27 14:02:20;;;;;;;;;;;;;;;3.42;100.00;102772.75;10098865;28;20141;-68
2023/01/27 14:07:59;;;;;;;7.82;7.15;;;;;;;3.33;100.00;102771.38;10099469;28;19931;-69
2023/01/27 14:13:05;;;;;;;7.30;6.80;;;;;;;3.41;100.00;102779.19;10093358;28;20192;-66
2023/01/27 14:18:16;;;;;;;7.53;6.82;;;;;;;3.05;100.00;102786.09;10097995;28;20070;-68
2023/01/27 14:23:23;;;;;;;7.43;6.85;;;;;;;3.00;100.00;102788.63;10090844;28;20058;-68
2023/01/27 14:28:51;;;;;;;7.28;6.57;;;;;;;2.79;100.00;102778.13;10104154;28;20047;-67
2023/01/27 14:34:08;;;;;;;6.90;6.38;;;;;;;2.96;100.00;102776.59;10087704;28;20602;-68
2023/01/27 14:39:36;;;;;;;7.50;6.80;;;;;;;2.95;100.00;102775.75;10098258;28;20039;-69
2023/01/27 14:44:53;;;;;;;7.53;6.20;;;;;;;3.15;100.00;102780.22;10108314;28;20468;-68
2023/01/27 14:50:37;;;;;;;6.65;6.15;;;;;;;3.62;100.00;102779.88;10107633;28;20051;-68
2023/01/27 14:55:44;;;;;;;6.65;6.13;;;;;;;3.61;100.00;102789.06;10109683;28;20054;-68
2023/01/27 15:00:55;;;;;;;8.85;6.18;;;;;;;3.13;100.00;102777.75;10093627;28;20055;-68
2023/01/27 15:06:07;;;;;;;7.75;6.53;;;;;;;3.03;100.00;102788.19;10110320;28;20130;-68
2023/01/27 15:11:28;;;;;;;7.47;6.05;;;;;;;2.99;100.00;102786.94;10111845;28;20051;-69
2023/01/27 15:17:04;;;;;;;6.05;5.55;;;;;;;2.97;100.00;102805.28;10108184;28;20527;-68
2023/01/27 15:22:36;;;;;;;6.90;5.78;;;;;;;2.81;100.00;102800.34;10103573;28;20047;-69
2023/01/27 15:27:33;;;;;;;6.60;5.93;;;;;;;2.74;100.00;102806.63;10103508;28;20082;-68
2023/01/27 15:32:36;;;;;;;6.45;5.85;;;;;;;2.56;100.00;102809.19;10104835;28;20051;-68
2023/01/27 15:37:55;;;;;;;7.10;6.32;;;;;;;2.56;100.00;102808.34;10108423;28;20038;-69
2023/01/27 15:43:03;;;;;;;8.38;6.70;;;;;;;2.58;100.00;102812.50;10095228;28;20075;-68
2023/01/27 15:48:12;;;;;;;8.63;6.70;;;;;;;2.42;100.00;102818.38;10070187;28;20083;-68
2023/01/27 15:53:14;;;;;;;6.78;6.18;;;;;;;2.52;100.00;102829.53;10080824;28;20580;-68
2023/01/27 15:58:30;;;;;;;7.20;6.60;;;;;;;2.51;100.00;102834.13;10088434;28;20125;-69
2023/01/27 16:03:46;;;;;;;7.07;6.38;;;;;;;2.41;100.00;102843.69;10093381;28;20566;-68
2023/01/27 16:08:51;;;;;;;6.43;5.90;;;;;;;2.53;100.00;102842.84;10077426;28;20074;-69
2023/01/27 16:13:47;;;;;;;6.93;6.32;;;;;;;2.40;100.00;102842.03;10082743;28;20047;-69
2023/01/27 16:18:49;;;;;;;7.63;6.82;;;;;;;2.44;100.00;102843.28;10089744;28;20493;-68
2023/01/27 16:23:57;;;;;;;7.95;7.10;;;;;;;2.41;100.00;102849.09;10098417;28;20079;-68
2023/01/27 16:29:04;;;;;;;7.60;6.85;;;;;;;2.34;100.00;102859.06;10103421;28;20054;-68
2023/01/27 16:34:22;;;;;;;7.25;6.63;;;;;;;2.35;100.00;102852.66;10094849;28;20121;-69
2023/01/27 16:39:33;;;;;;;9.18;7.00;;;;;;;2.23;100.00;102858.69;10095176;28;20146;-68
2023/01/27 16:44:42;;;;;;;9.25;6.80;;;;;;;2.20;100.00;102864.47;10103125;28;20125;-69
2023/01/27 16:49:40;;;;;;;6.93;6.32;;;;;;;2.33;100.00;102865.53;10107869;28;20031;-68
2023/01/27 16:54:41;;;;;;;7.35;6.60;;;;;;;2.24;100.00;102865.72;10106122;28;20046;-68
2023/01/27 16:59:39;;;;;;;11.13;7.13;;;;;;;2.22;100.00;102869.69;10106408;28;20043;-68
2023/01/27 17:04:35;;;;;;;7.95;7.20;;;;;;;2.26;100.00;102877.16;10108829;28;20460;-68
2023/01/27 17:09:40;;;;;;;8.18;6.63;;;;;;;2.17;100.00;102883.78;10104223;28;20078;-69
2023/01/27 17:14:41;;;;;;;6.75;6.15;;;;;;;2.22;100.00;102872.38;10103110;28;20074;-68
2023/01/27 17:19:38;;;;;;;7.53;6.82;;;;;;;2.19;100.00;102884.44;10098226;28;20933;-68
2023/01/27 17:24:48;;;;;;;6.95;6.25;;;;;;;2.34;100.00;102886.06;10101207;28;20054;-68
2023/01/27 17:29:48;;;;;;;7.07;6.38;;;;;;;2.27;100.00;102881.50;10105564;28;20038;-68
2023/01/27 17:34:44;;;;;;;8.82;6.88;;;;;;;2.37;100.00;102891.03;10098187;28;20074;-69
2023/01/27 17:39:41;;;;;;;7.75;7.05;;;;;;;2.29;100.00;102884.81;10102218;28;20047;-68
2023/01/27 17:44:39;;;;;;;7.32;6.72;;;;;;;2.16;100.00;102890.25;10103527;28;20117;-69
2023/01/27 17:49:38;;;;;;;7.15;6.63;;;;;;;2.21;100.00;102886.94;10102064;28;20543;-69
2023/01/27 17:54:36;;;;;;;10.50;7.60;;;;;;;2.11;100.00;102884.63;10093234;28;20425;-69
2023/01/27 17:59:37;;;;;;;7.50;6.70;;;;;;;2.17;100.00;102888.38;10095806;28;20560;-68
2023/01/27 18:04:39;;;;;;;12.20;6.65;;;;;;;2.23;100.00;102896.47;10091108;28;20078;-69
2023/01/27 18:09:43;;;;;;;8.00;7.20;;;;;;;2.05;100.00;102896.25;10101908;28;20524;-68
2023/01/27 18:14:40;;;;;;;7.47;6.80;;;;;;;2.19;100.00;102906.03;10097476;28;20583;-68
2023/01/27 18:19:36;;;;;;;7.80;6.60;;;;;;;2.22;100.00;102908.28;10074033;28;20039;-68
2023/01/27 18:24:33;;;;;;;6.40;5.90;;;;;;;2.21;100.00;102909.34;10095438;28;20137;-70
2023/01/27 18:29:36;;;;;;;7.10;6.40;;;;;;;2.14;100.00;102905.81;10101869;28;20466;-67
2023/01/27 18:34:43;;;;;;;8.75;7.00;;;;;;;1.99;100.00;102911.41;10100525;28;20053;-68
2023/01/27 18:39:40;;;;;;;9.20;7.00;;;;;;;2.08;100.00;102904.75;10102651;28;20045;-68
2023/01/27 18:44:36;;;;;;;9.38;6.78;;;;;;;2.08;100.00;102909.34;10090251;28;20531;-68
2023/01/27 18:49:33;;;;;;;7.60;6.90;;;;;;;2.14;100.00;102908.50;10092742;28;20047;-67
2023/01/27 18:54:29;;;;;;;11.18;6.90;;;;;;;2.19;100.00;102914.13;10103963;28;20058;-67
2023/01/27 18:59:26;;;;;;;8.07;6.85;;;;;;;2.19;100.00;102911.41;10102142;28;20089;-68
2023/01/27 19:04:23;;;;;;;7.07;6.40;;;;;;;2.20;100.00;102918.47;10091664;28;20062;-68
2023/01/27 19:09:19;;;;;;;6.80;6.10;;;;;;;2.21;100.00;102909.34;10091406;28;20047;-68
2023/01/27 19:14:15;;;;;;;6.38;5.70;;;;;;;2.24;100.00;102919.72;10104282;28;20078;-68
2023/01/27 19:19:12;;;;;;;6.28;5.68;;;;;;;2.27;100.00;102924.69;10106867;28;20047;-68
2023/01/27 19:24:09;;;;;;;10.60;7.15;;;;;;;2.13;100.00;102928.44;10106291;28;20042;-68
2023/01/27 19:29:09;;;;;;;9.13;6.40;;;;;;;2.22;100.00;102932.59;10106036;28;20458;-68
2023/01/27 19:34:09;;;;;;;6.20;5.70;;;;;;;2.25;100.00;102937.59;10106895;28;20802;-68
2023/01/27 19:39:06;;;;;;;7.10;6.50;;;;;;;2.13;100.00;102928.44;10102681;28;20626;-67
2023/01/27 19:44:02;;;;;;;8.05;5.97;;;;;;;2.05;100.00;102925.94;10111065;28;20046;-68
2023/01/27 19:48:59;;;;;;;6.63;5.80;;;;;;;2.14;100.00;102922.00;10112321;28;20034;-68
2023/01/27 19:53:55;;;;;;;7.38;5.93;;;;;;;2.04;100.00;102925.13;10109021;28;20054;-69
2023/01/27 19:58:53;;;;;;;7.32;5.40;;;;;;;2.06;100.00;102917.63;10107991;28;20066;-68
2023/01/27 20:03:51;;;;;;;6.18;5.57;;;;;;;2.05;100.00;102921.38;10105327;28;20062;-68
2023/01/27 20:08:55;;;;;;;7.20;5.60;;;;;;;2.08;100.00;102925.53;10111655;28;20105;-68
2023/01/27 20:13:51;;;;;;;6.88;5.13;;;;;;;2.01;100.00;102919.28;10098723;28;20043;-68
2023/01/27 20:18:49;;;;;;;5.63;5.10;;;;;;;2.00;100.00;102913.06;10103921;28;20569;-68
2023/01/27 20:23:46;;;;;;;7.43;5.80;;;;;;;1.87;100.00;102916.56;10105718;28;20043;-68
2023/01/27 20:28:44;;;;;;;7.25;4.78;;;;;;;1.67;100.00;102910.31;10094001;28;20047;-67
2023/01/27 20:33:41;;;;;;;6.20;4.80;;;;;;;1.44;100.00;102908.81;10105358;28;20052;-67
2023/01/27 20:38:37;;;;;;;6.30;4.70;;;;;;;1.35;100.00;102901.94;10111335;28;20038;-67
2023/01/27 20:43:34;;;;;;;5.35;4.60;;;;;;;1.31;100.00;102908.78;10104726;28;20070;-68
2023/01/27 20:48:32;;;;;;;5.40;4.90;;;;;;;1.30;100.00;102911.66;10104358;28;20047;-68
2023/01/27 20:53:31;;;;;;;6.60;5.60;;;;;;;1.10;100.00;102907.03;10102695;28;20055;-68
2023/01/27 20:58:30;;;;;;;7.38;5.22;;;;;;;1.10;100.00;102906.22;10098893;28;20050;-68
2023/01/27 21:03:27;;;;;;;6.03;5.30;;;;;;;1.12;100.00;102899.59;10094534;28;20093;-68
2023/01/27 21:08:23;;;;;;;6.13;5.53;;;;;;;1.16;100.00;102913.47;10104210;28;20035;-68
2023/01/27 21:13:20;;;;;;;5.72;5.10;;;;;;;1.20;100.00;102912.03;10100739;28;20545;-67
2023/01/27 21:18:16;;;;;;;8.73;6.32;;;;;;;1.21;100.00;102908.34;10104981;28;20042;-68
2023/01/27 21:23:13;;;;;;;7.30;4.88;;;;;;;1.24;100.00;102902.53;10100842;28;20402;-68
2023/01/27 21:28:10;;;;;;;5.40;4.90;;;;;;;1.21;100.00;102902.94;10090443;28;20086;-68
2023/01/27 21:33:06;;;;;;;5.22;4.68;;;;;;;1.20;100.00;102901.25;10095690;28;20071;-67
2023/01/27 21:38:03;;;;;;;5.40;4.90;;;;;;;1.35;100.00;102907.34;10101966;28;20039;-68
2023/01/27 21:48:14;;;;;;;6.57;5.35;;;;;;;1.49;100.00;102904.69;10099427;28;20083;-69
2023/01/27 21:53:10;;;;;;;5.80;5.20;;;;;;;1.43;100.00;102909.84;10104538;28;20110;-69
2023/01/27 21:58:07;;;;;;;6.25;4.85;;;;;;;1.51;100.00;102908.00;10101668;28;20507;-69
2023/01/27 22:03:03;;;;;;;8.18;5.40;;;;;;;1.51;100.00;102891.81;10103844;28;20049;-69
2023/01/27 22:08:05;;;;;;;6.28;4.90;;;;;;;1.51;100.00;102887.28;10088113;28;20133;-69
2023/01/27 22:13:03;;;;;;;6.22;4.45;;;;;;;1.59;100.00;102888.94;10099567;28;20126;-68
2023/01/27 22:17:59;;;;;;;5.47;4.80;;;;;;;1.61;100.00;102898.50;10096681;28;20122;-68
2023/01/27 22:22:56;;;;;;;5.90;4.97;;;;;;;1.58;100.00;102903.44;10098202;28;20086;-69
2023/01/27 22:27:53;;;;;;;5.10;4.70;;;;;;;1.40;100.00;102899.47;10103817;28;20053;-68
2023/01/27 22:32:50;;;;;;;11.55;4.72;;;;;;;1.47;100.00;102903.00;10099409;28;20062;-68
2023/01/27 22:37:47;;;;;;;7.68;4.75;;;;;;;1.50;100.00;102895.56;10108587;28;20098;-68
2023/01/27 22:42:46;;;;;;;4.97;4.28;;;;;;;1.54;100.00;102894.94;10100123;28;20412;-68
2023/01/27 22:47:43;;;;;;;7.55;4.30;;;;;;;1.57;100.00;102901.78;10101442;28;20664;-67
2023/01/27 22:52:39;;;;;;;5.05;4.30;;;;;;;1.59;100.00;102907.81;10113533;28;20508;-68
2023/01/27 22:57:36;;;;;;;6.28;4.68;;;;;;;1.65;100.00;102894.34;10109486;28;20050;-68
2023/01/27 23:02:34;;;;;;;4.80;4.30;;;;;;;1.55;100.00;102906.56;10108807;28;20500;-69
2023/01/27 23:07:31;;;;;;;7.35;4.38;;;;;;;1.68;100.00;102898.50;10112745;28;20122;-68
2023/01/27 23:12:27;;;;;;;6.28;4.45;;;;;;;1.67;100.00;102902.22;10105589;28;20053;-68
2023/01/27 23:17:24;;;;;;;5.05;4.40;;;;;;;1.56;100.00;102894.75;10102440;28;20138;-68
2023/01/27 23:22:20;;;;;;;4.97;4.47;;;;;;;1.63;100.00;102896.41;10112814;28;20054;-68
2023/01/27 23:27:16;;;;;;;5.22;4.63;;;;;;;1.62;100.00;102888.53;10103422;28;20039;-68
2023/01/27 23:32:13;;;;;;;6.65;4.75;;;;;;;1.55;100.00;102887.69;10112403;28;20046;-68
2023/01/27 23:37:09;;;;;;;5.28;4.78;;;;;;;1.56;100.00;102883.97;10109161;28;20117;-69